Time;durP1;ratioP1;P1;durP2;ratioP2;P2;SDS_P1;SDS_P2;PMS_P1;PMS_P2;Temp;Humidity;BMP_temperature;BMP_pressure;BME280_temperature;BME280_humidity;BME280_pressure;Samples;Min_cycle;Max_cycle;Signal;HPM_P1;HPM_P2
2022/02/03 00:01:01;;;;;;;120.80;46.55;;;;;;;1.21;100.00;99324.34;5093031;28;20031;-68
2022/02/03 00:06:45;;;;;;;123.87;44.10;;;;;;;1.24;100.00;99351.03;5028348;28;20123;-67
2022/02/03 00:25:32;;;;;;;233.07;38.08;;;;;;;0.48;100.00;99312.66;5111086;28;20047;-67
2022/02/03 00:28:10;;;;;;;299.38;42.65;;;;;;;0.74;100.00;99384.41;5110488;28;20028;-67
2022/02/03 00:38:29;;;;;;;234.38;34.80;;;;;;;0.41;100.00;99373.50;5110769;28;20036;-67
2022/02/03 00:49:10;;;;;;;203.25;39.55;;;;;;;0.05;100.00;99326.75;5110954;28;20030;-67
2022/02/03 00:51:40;;;;;;;147.77;35.37;;;;;;;0.23;100.00;99385.94;5110865;28;20060;-67
2022/02/03 00:54:09;;;;;;;124.10;34.72;;;;;;;0.15;100.00;99347.59;5110699;28;20031;-67
2022/02/03 00:57:01;;;;;;;119.22;35.25;;;;;;;0.33;100.00;99380.97;5110378;28;20077;-67
2022/02/03 00:59:38;;;;;;;71.00;30.23;;;;;;;0.42;100.00;99395.97;5092178;28;20032;-67
2022/02/03 01:02:13;;;;;;;84.03;26.88;;;;;;;0.10;100.00;99337.56;5208033;22;20057;-68
2022/02/03 01:04:41;;;;;;;73.07;26.00;;;;;;;-0.08;100.00;99315.88;5011249;28;20033;-67
2022/02/03 01:07:09;;;;;;;111.20;27.33;;;;;;;-0.16;100.00;99295.03;5014787;28;20072;-67
2022/02/03 01:09:39;;;;;;;62.92;25.30;;;;;;;0.47;100.00;99398.50;5027062;28;20034;-66
2022/02/03 01:12:19;;;;;;;63.83;26.67;;;;;;;0.44;100.00;99390.97;5026579;28;20040;-67
2022/02/03 01:17:45;;;;;;;153.65;29.60;;;;;;;0.31;100.00;99379.28;5045874;28;20057;-68
2022/02/03 01:20:44;;;;;;;84.10;26.45;;;;;;;-0.18;100.00;99298.38;5028882;28;20168;-67
2022/02/03 01:45:38;;;;;;;90.75;30.13;;;;;;;0.19;100.00;99310.13;5030473;28;20037;-67
2022/02/03 01:53:20;;;;;;;128.80;34.28;;;;;;;0.68;100.00;99399.38;5029534;28;20075;-67
2022/02/03 01:55:47;;;;;;;112.07;33.42;;;;;;;0.47;100.00;99396.00;5029775;28;20033;-66
2022/02/03 01:58:22;;;;;;;131.23;32.60;;;;;;;0.48;100.00;99390.16;5029764;28;20033;-67
2022/02/03 02:01:02;;;;;;;358.58;33.28;;;;;;;0.35;100.00;99406.81;5011924;28;20049;-67
2022/02/03 02:03:40;;;;;;;284.65;38.67;;;;;;;0.31;100.00;99405.13;5029907;28;20053;-67
2022/02/03 02:06:24;;;;;;;285.63;40.13;;;;;;;0.38;100.00;99415.97;5011302;28;20033;-67
2022/02/03 02:09:19;;;;;;;228.77;35.25;;;;;;;0.29;100.00;99406.78;5029713;28;20034;-67
2022/02/03 02:12:52;;;;;;;196.07;32.75;;;;;;;0.36;100.00;99412.63;5029607;28;20039;-67
2022/02/03 02:43:35;;;;;;;218.13;32.88;;;;;;;0.35;100.00;99450.94;5048402;28;20028;-68
2022/02/03 02:46:08;;;;;;;135.45;30.23;;;;;;;0.28;100.00;99449.28;4987364;28;20041;-67
2022/02/03 02:48:33;;;;;;;123.57;31.00;;;;;;;0.51;100.00;99447.69;5030726;28;20036;-68
2022/02/03 02:51:09;;;;;;;107.47;30.50;;;;;;;0.55;100.00;99446.84;5048530;28;20028;-67
2022/02/03 02:56:33;;;;;;;303.60;38.58;;;;;;;0.00;100.00;99395.84;5048836;28;20558;-68
2022/02/03 03:30:46;;;;;;;73.25;30.05;;;;;;;0.39;100.00;99437.63;5027937;28;20056;-68
2022/02/03 03:33:13;;;;;;;62.63;25.88;;;;;;;0.47;100.00;99451.84;5028959;28;20128;-68
2022/02/03 03:35:50;;;;;;;67.53;30.33;;;;;;;0.37;100.00;99421.81;5045697;28;20063;-68
2022/02/03 03:38:25;;;;;;;62.50;24.50;;;;;;;-0.14;100.00;99368.28;5047903;28;20071;-68
2022/02/03 03:40:54;;;;;;;57.90;26.65;;;;;;;0.39;100.00;99442.63;5029809;28;20112;-69
2022/02/03 03:43:28;;;;;;;74.78;36.63;;;;;;;0.26;100.00;99398.44;5047420;28;20032;-68
2022/02/03 03:45:54;;;;;;;71.72;31.80;;;;;;;0.54;100.00;99442.69;5020472;28;20029;-70
2022/02/03 03:48:28;;;;;;;86.40;34.00;;;;;;;0.45;100.00;99440.16;5027930;28;20033;-68
2022/02/03 03:51:00;;;;;;;94.32;35.22;;;;;;;0.51;100.00;99443.53;5027741;28;20017;-69
2022/02/03 03:53:40;;;;;;;129.50;37.78;;;;;;;-0.09;100.00;99404.13;5027089;28;20453;-69
2022/02/03 03:56:34;;;;;;;163.02;50.42;;;;;;;0.17;100.00;99428.38;5009960;28;20029;-68
2022/02/03 05:03:46;;;;;;;57.95;27.40;;;;;;;0.64;100.00;99581.91;5027391;28;20188;-65
2022/02/03 05:10:13;;;;;;;96.22;47.65;;;;;;;0.68;100.00;99589.44;4949515;28;20126;-66
2022/02/03 05:14:21;;;;;;;75.70;42.25;;;;;;;0.47;100.00;99600.97;4949550;28;20043;-69
2022/02/03 05:35:16;;;;;;;110.95;53.08;;;;;;;0.28;100.00;99634.19;4943698;28;20048;-67
2022/02/03 05:44:28;;;;;;;53.75;27.73;;;;;;;-0.06;100.00;99675.53;5053332;28;20040;-66
2022/02/03 06:21:33;;;;;;;64.38;38.60;;;;;;;0.26;100.00;99710.81;5031866;28;20447;-65
2022/02/03 06:29:19;;;;;;;80.72;48.00;;;;;;;0.02;100.00;99683.91;5034013;28;20455;-63
2022/02/03 06:31:47;;;;;;;49.83;29.48;;;;;;;0.54;100.00;99722.66;5032947;28;20025;-65
2022/02/03 06:34:13;;;;;;;43.95;27.02;;;;;;;0.86;100.00;99763.78;5032382;28;20491;-66
2022/02/03 06:36:40;;;;;;;48.53;29.35;;;;;;;0.49;100.00;99721.81;5032683;28;20029;-66
2022/02/03 06:39:18;;;;;;;50.85;30.33;;;;;;;1.03;100.00;99768.91;5032618;28;20071;-65
2022/02/03 06:41:45;;;;;;;45.22;29.60;;;;;;;0.79;100.00;99745.38;5014531;28;20180;-66
2022/02/03 06:44:13;;;;;;;54.97;34.85;;;;;;;0.87;100.00;99707.94;5014382;28;20025;-66
2022/02/03 06:46:42;;;;;;;59.40;38.40;;;;;;;1.34;100.00;99779.09;5032209;28;20388;-66
2022/02/03 06:51:51;;;;;;;75.30;49.83;;;;;;;0.93;100.00;99674.59;5032178;28;20038;-66
2022/02/03 06:54:26;;;;;;;75.93;48.33;;;;;;;1.50;100.00;99713.25;5032216;28;20036;-66
2022/02/03 06:57:00;;;;;;;79.53;44.55;;;;;;;1.94;100.00;99790.22;5031809;28;20570;-66
2022/02/03 06:59:37;;;;;;;106.90;52.00;;;;;;;1.64;100.00;99730.84;5032172;28;20021;-66
2022/02/03 07:02:04;;;;;;;81.47;47.65;;;;;;;1.74;100.00;99743.38;5032169;28;20049;-66
2022/02/03 07:04:38;;;;;;;80.20;48.17;;;;;;;2.22;100.00;99812.84;5031922;28;20060;-66
2022/02/03 07:07:03;;;;;;;89.03;55.17;;;;;;;1.91;100.00;99760.97;5032172;28;20033;-64
2022/02/03 07:09:30;;;;;;;91.82;55.03;;;;;;;2.10;100.00;99842.91;5013995;28;20482;-66
2022/02/03 07:11:55;;;;;;;81.63;49.45;;;;;;;2.25;100.00;99765.25;5031554;28;20021;-66
2022/02/03 07:14:22;;;;;;;92.75;56.35;;;;;;;2.63;100.00;99797.91;5031895;28;20048;-66
2022/02/03 07:16:49;;;;;;;139.65;71.07;;;;;;;2.25;100.00;99795.34;5014060;28;20076;-66
2022/02/03 07:19:16;;;;;;;62.72;39.08;;;;;;;2.52;100.00;99860.59;5031583;28;20037;-66
2022/02/03 07:21:41;;;;;;;49.00;31.35;;;;;;;2.82;100.00;99837.22;5031557;28;20511;-66
2022/02/03 07:24:07;;;;;;;51.63;34.33;;;;;;;2.25;100.00;99822.91;5031564;28;20042;-66
2022/02/03 07:26:33;;;;;;;63.67;39.80;;;;;;;2.20;100.00;99827.06;5031466;28;20034;-66
2022/02/03 07:28:58;;;;;;;52.80;35.80;;;;;;;2.05;100.00;99789.44;5031862;28;20539;-66
2022/02/03 07:31:23;;;;;;;53.13;35.97;;;;;;;2.71;100.00;99823.84;5031211;28;20029;-66
2022/02/03 07:33:49;;;;;;;53.22;37.80;;;;;;;2.82;100.00;99891.56;5013621;28;20030;-66
2022/02/03 07:36:14;;;;;;;54.67;37.50;;;;;;;3.22;100.00;99905.84;5030851;28;20554;-66
2022/02/03 07:38:40;;;;;;;60.22;39.22;;;;;;;2.77;100.00;99840.56;5030819;28;20057;-66
2022/02/03 07:41:06;;;;;;;64.25;41.33;;;;;;;2.47;100.00;99854.75;5031262;28;20079;-66
2022/02/03 07:43:31;;;;;;;62.88;41.35;;;;;;;2.26;100.00;99836.25;5013222;28;20029;-66
2022/02/03 07:45:58;;;;;;;59.40;41.45;;;;;;;3.39;100.00;99897.47;5031097;28;20029;-66
2022/02/03 07:48:23;;;;;;;48.35;34.25;;;;;;;3.37;100.00;99883.22;5031284;28;20127;-65
2022/02/03 07:50:49;;;;;;;45.97;32.95;;;;;;;3.82;100.00;99907.47;5013265;28;20067;-66
2022/02/03 07:53:17;;;;;;;50.22;34.33;;;;;;;4.24;100.00;99914.88;5030625;28;20037;-66
2022/02/03 07:55:43;;;;;;;41.05;27.77;;;;;;;4.06;100.00;99930.88;5030911;28;20026;-66
2022/02/03 07:58:08;;;;;;;42.08;28.85;;;;;;;4.33;100.00;99879.63;5030979;28;20091;-65
2022/02/03 08:00:34;;;;;;;45.13;32.10;;;;;;;4.47;100.00;99930.72;5031301;28;20061;-65
2022/02/03 08:03:04;;;;;;;45.28;31.95;;;;;;;3.99;100.00;99830.31;5031017;28;20132;-65
2022/02/03 08:05:29;;;;;;;45.30;32.45;;;;;;;4.14;100.00;99868.81;5030892;28;20025;-66
2022/02/03 08:10:35;;;;;;;41.97;29.70;;;;;;;4.51;100.00;99952.53;5030725;28;20065;-65
2022/02/03 08:13:03;;;;;;;47.47;32.33;;;;;;;4.96;100.00;99953.97;5030830;28;20488;-66
2022/02/03 08:15:30;;;;;;;44.70;32.45;;;;;;;5.06;100.00;99933.75;5030576;28;20135;-65
2022/02/03 08:18:02;;;;;;;60.47;43.20;;;;;;;4.28;100.00;99894.75;5030828;28;20030;-65
2022/02/03 08:20:28;;;;;;;67.57;49.97;;;;;;;5.27;100.00;99921.00;5012427;28;20033;-65
2022/02/03 08:23:12;;;;;;;66.68;47.40;;;;;;;5.58;100.00;99971.16;5012840;28;20095;-64
2022/02/03 08:25:42;;;;;;;60.55;44.15;;;;;;;5.12;100.00;99902.66;5012649;28;20030;-65
2022/02/03 08:31:00;;;;;;;58.88;43.72;;;;;;;5.05;100.00;99913.63;5030427;28;20065;-64
2022/02/03 08:33:25;;;;;;;53.45;39.22;;;;;;;5.20;100.00;99967.25;5030351;28;20052;-64
2022/02/03 08:35:51;;;;;;;67.22;47.95;;;;;;;5.48;100.00;99936.81;5030605;28;20447;-64
2022/02/03 08:43:16;;;;;;;56.50;42.65;;;;;;;6.51;100.00;99969.44;5030286;28;20037;-63
2022/02/03 08:45:43;;;;;;;39.67;30.27;;;;;;;6.88;100.00;99980.72;5030445;28;20025;-64
2022/02/03 08:48:10;;;;;;;42.20;31.67;;;;;;;6.04;100.00;99993.47;5013787;28;20036;-64
2022/02/03 08:50:37;;;;;;;37.67;28.60;;;;;;;6.07;100.00;99895.06;5034087;28;20025;-64
2022/02/03 09:57:37;;;;;;;10.63;6.53;;;;;;;8.26;100.00;100002.19;5013332;28;20117;-64
2022/02/03 10:00:24;;;;;;;7.03;5.80;;;;;;;8.92;100.00;100049.03;4994977;28;20033;-64
2022/02/03 10:03:03;;;;;;;9.77;7.97;;;;;;;8.74;100.00;100057.84;5024074;28;20164;-64
2022/02/03 10:05:38;;;;;;;25.15;12.07;;;;;;;8.27;100.00;100073.06;5015473;28;20030;-64
2022/02/03 10:08:04;;;;;;;12.85;6.88;;;;;;;8.71;100.00;100045.22;5033102;28;20025;-64
2022/02/03 10:10:31;;;;;;;10.45;7.00;;;;;;;8.68;100.00;100032.59;5033081;28;20032;-64
2022/02/03 10:12:56;;;;;;;6.78;5.10;;;;;;;8.12;100.00;100078.34;5032394;28;20033;-66
2022/02/03 10:15:22;;;;;;;8.10;6.00;;;;;;;8.64;100.00;100090.97;5032687;28;20049;-65
2022/02/03 10:17:50;;;;;;;7.43;6.00;;;;;;;8.28;100.00;100069.66;5015297;28;20117;-66
2022/02/03 10:20:19;;;;;;;7.15;5.80;;;;;;;8.19;100.00;100031.81;5014994;28;20066;-66
2022/02/03 10:23:04;;;;;;;5.10;4.30;;;;;;;8.04;100.00;100079.34;5015202;28;20041;-65
2022/02/03 10:25:34;;;;;;;4.80;3.72;;;;;;;7.32;100.00;100026.47;5014878;28;20456;-65
2022/02/03 10:28:12;;;;;;;5.82;4.10;;;;;;;7.92;100.00;100018.78;5032967;28;20030;-65
2022/02/03 10:31:12;;;;;;;4.97;4.22;;;;;;;8.16;100.00;100015.84;5032591;28;20033;-65
2022/02/03 10:33:34;;;;;;;6.18;4.55;;;;;;;8.30;100.00;100094.97;5028155;28;20098;-66
2022/02/03 10:36:05;;;;;;;4.57;3.75;;;;;;;7.67;100.00;100038.59;5032686;28;20108;-66
2022/02/03 10:38:59;;;;;;;;;;;;;;;8.11;100.00;100099.47;5015490;28;20053;-66
2022/02/03 10:42:00;;;;;;;6.00;4.47;;;;;;;9.03;100.00;100086.84;5032295;28;19956;-65
2022/02/03 11:03:52;;;;;;;6.72;4.50;;;;;;;7.47;100.00;100124.03;5032060;28;20144;-63
2022/02/03 11:11:56;;;;;;;7.20;5.32;;;;;;;7.37;100.00;100092.97;5013220;28;20119;-64
2022/02/03 11:14:23;;;;;;;7.90;4.97;;;;;;;7.25;100.00;100103.25;5031806;28;20112;-63
2022/02/03 11:16:49;;;;;;;8.68;6.15;;;;;;;7.35;100.00;100102.28;5031830;28;20035;-63
2022/02/03 11:19:20;;;;;;;6.82;5.22;;;;;;;7.01;100.00;100071.53;5031416;28;20026;-63
2022/02/03 11:21:50;;;;;;;7.43;5.25;;;;;;;7.26;100.00;100126.84;5013912;28;20388;-64
2022/02/03 11:24:29;;;;;;;6.07;4.20;;;;;;;7.70;100.00;100106.88;5013768;28;20022;-66
2022/02/03 11:32:13;;;;;;;10.15;6.45;;;;;;;7.20;100.00;100131.97;5031239;28;20496;-65
2022/02/03 11:40:58;;;;;;;11.20;6.88;;;;;;;6.45;100.00;100093.22;5031036;28;20135;-63
2022/02/03 12:16:48;;;;;;;6.75;5.78;;;;;;;8.58;100.00;100189.91;5031047;28;20038;-66
2022/02/03 12:22:00;;;;;;;8.95;6.50;;;;;;;8.86;100.00;100157.31;5030483;28;20045;-66
2022/02/03 12:24:50;;;;;;;7.30;6.20;;;;;;;9.54;100.00;100182.19;5012590;28;20037;-66
2022/02/03 12:28:16;;;;;;;8.93;6.13;;;;;;;7.96;100.00;100149.50;5030672;28;20025;-67
2022/02/03 12:30:24;;;;;;;8.43;6.30;;;;;;;7.83;100.00;100138.72;5026143;28;20067;-66
2022/02/03 12:38:23;;;;;;;8.18;6.40;;;;;;;8.53;100.00;100195.06;5030645;28;20056;-65
2022/02/03 12:45:48;;;;;;;6.82;5.53;;;;;;;8.03;100.00;100199.16;5030398;28;20084;-66
2022/02/03 12:48:13;;;;;;;8.10;5.05;;;;;;;8.09;100.00;100167.00;5030289;28;20075;-66
2022/02/03 12:50:41;;;;;;;8.77;6.03;;;;;;;8.17;100.00;100217.53;5030281;28;20033;-66
2022/02/03 12:53:08;;;;;;;8.07;5.43;;;;;;;8.27;100.00;100208.97;5012398;28;20444;-66
2022/02/03 12:55:39;;;;;;;6.55;5.15;;;;;;;8.21;100.00;100211.56;5012291;28;20039;-65
2022/02/03 12:58:12;;;;;;;7.05;4.90;;;;;;;8.11;100.00;100208.34;5030423;28;20407;-66
2022/02/03 13:00:44;;;;;;;8.20;5.60;;;;;;;8.12;100.00;100148.41;5012565;28;20037;-65
2022/02/03 13:03:12;;;;;;;10.38;6.72;;;;;;;7.58;100.00;100180.41;5012248;28;20144;-65
2022/02/03 13:05:40;;;;;;;12.45;7.80;;;;;;;8.85;100.00;100245.22;5030476;28;20038;-65
2022/02/03 13:08:09;;;;;;;6.82;6.00;;;;;;;8.74;100.00;100231.88;5030500;28;20067;-65
2022/02/03 13:10:37;;;;;;;9.18;6.75;;;;;;;8.13;100.00;100244.59;5029975;28;20052;-65
2022/02/03 13:13:24;;;;;;;12.82;6.68;;;;;;;8.06;100.00;100234.59;5030150;28;20487;-65
2022/02/03 13:15:49;;;;;;;9.95;6.68;;;;;;;7.55;100.00;100247.03;5029999;28;20026;-65
2022/02/03 13:18:27;;;;;;;7.88;5.90;;;;;;;7.15;100.00;100180.03;5030055;28;20040;-65
2022/02/03 13:21:05;;;;;;;6.68;5.95;;;;;;;7.18;100.00;100176.66;5030071;28;20091;-65
2022/02/03 13:23:32;;;;;;;8.93;6.57;;;;;;;8.34;100.00;100262.03;5012255;28;20068;-65
2022/02/03 13:26:14;;;;;;;10.00;6.63;;;;;;;7.16;100.00;100196.91;5012236;28;20034;-66
2022/02/03 13:28:56;;;;;;;9.27;6.50;;;;;;;7.79;100.00;100261.06;5029877;28;20034;-65
2022/02/03 13:31:58;;;;;;;8.07;6.57;;;;;;;7.51;100.00;100269.84;5012132;28;20057;-65
2022/02/03 13:34:27;;;;;;;7.93;6.88;;;;;;;7.57;100.00;100259.66;5025990;28;20128;-66
2022/02/03 13:37:00;;;;;;;14.50;7.90;;;;;;;7.54;100.00;100282.47;5016066;28;20455;-64
2022/02/03 13:39:29;;;;;;;9.57;7.88;;;;;;;7.24;100.00;100234.72;5015594;28;20034;-64
2022/02/03 13:42:06;;;;;;;11.20;8.82;;;;;;;7.36;100.00;100278.44;5033538;28;20036;-67
2022/02/03 13:44:32;;;;;;;12.13;8.68;;;;;;;7.64;100.00;100277.28;5033546;28;20108;-67
2022/02/03 13:46:58;;;;;;;11.10;8.65;;;;;;;7.24;100.00;100290.34;5033442;28;20111;-67
2022/02/03 13:49:27;;;;;;;11.32;8.77;;;;;;;6.56;100.00;100187.38;5033365;28;20389;-65
2022/02/03 13:52:02;;;;;;;14.48;8.82;;;;;;;7.41;100.00;100285.97;5033183;28;20036;-67
2022/02/03 13:54:59;;;;;;;12.00;8.38;;;;;;;7.93;100.00;100282.00;5015560;28;20484;-65
2022/02/03 14:21:08;;;;;;;48.47;23.15;;;;;;;7.16;100.00;100255.03;5033020;28;20133;-67
2022/02/03 14:29:25;;;;;;;24.88;16.35;;;;;;;7.98;100.00;100206.84;4971678;28;20099;-67
2022/02/03 14:32:03;;;;;;;17.17;13.20;;;;;;;7.76;100.00;100315.06;5008301;28;20041;-65
2022/02/03 14:34:32;;;;;;;23.13;14.45;;;;;;;7.01;100.00;100309.09;5014933;28;20037;-65
2022/02/03 14:37:04;;;;;;;17.55;13.80;;;;;;;7.86;100.00;100308.25;5014576;28;20091;-65
2022/02/03 14:39:59;;;;;;;16.55;12.57;;;;;;;6.72;100.00;100307.63;5032662;28;20486;-65
2022/02/03 14:42:29;;;;;;;14.35;12.07;;;;;;;6.76;100.00;100324.44;5032588;28;20057;-66
2022/02/03 14:44:55;;;;;;;13.43;10.05;;;;;;;6.15;100.00;100276.03;5014533;28;20483;-66
2022/02/03 14:47:22;;;;;;;11.88;9.20;;;;;;;6.18;100.00;100237.31;5032066;28;20052;-67
2022/02/03 14:49:48;;;;;;;10.43;8.35;;;;;;;8.72;100.00;100281.75;5032352;28;20441;-66
2022/02/03 14:52:26;;;;;;;11.57;9.10;;;;;;;9.56;100.00;100323.41;5031861;28;20018;-66
2022/02/03 15:00:22;;;;;;;11.88;9.88;;;;;;;7.71;100.00;100343.81;5032088;28;20037;-66
2022/02/03 15:02:49;;;;;;;11.30;8.35;;;;;;;6.97;100.00;100326.84;5014063;28;20107;-67
2022/02/03 15:05:23;;;;;;;15.60;10.40;;;;;;;6.48;100.00;100335.56;5032087;28;20040;-66
2022/02/03 15:07:55;;;;;;;15.93;9.90;;;;;;;6.53;100.00;100336.41;5014306;28;20412;-67
2022/02/03 15:10:44;;;;;;;14.93;9.90;;;;;;;6.32;100.00;100334.81;5014015;28;20029;-66
2022/02/03 15:15:34;;;;;;;14.38;10.90;;;;;;;5.92;100.00;100313.97;5051658;28;20056;-68
2022/02/03 15:17:59;;;;;;;14.82;11.00;;;;;;;5.81;100.00;100320.72;5011881;28;20119;-63
2022/02/03 15:20:25;;;;;;;16.98;10.80;;;;;;;5.95;100.00;100343.41;5011814;28;20088;-66
2022/02/03 15:22:52;;;;;;;14.23;9.65;;;;;;;5.55;100.00;100312.38;5011717;28;20033;-63
2022/02/03 15:25:17;;;;;;;11.50;8.90;;;;;;;5.20;100.00;100264.59;5033162;28;20477;-65
2022/02/03 15:27:43;;;;;;;13.98;9.80;;;;;;;6.18;100.00;100366.84;5040022;28;20063;-65
2022/02/03 15:30:10;;;;;;;16.05;10.38;;;;;;;5.85;100.00;100372.03;5043503;28;20040;-67
2022/02/03 15:32:40;;;;;;;12.73;8.95;;;;;;;5.66;100.00;100319.94;5051349;28;20033;-66
2022/02/03 15:35:25;;;;;;;18.04;13.63;;;;;;;5.35;100.00;100304.00;4998160;28;10001026;-66
2022/02/03 15:37:51;;;;;;;21.60;13.63;;;;;;;5.83;100.00;100391.34;5006808;28;20281;-64
2022/02/03 15:40:21;;;;;;;24.75;18.00;;;;;;;5.75;100.00;100382.94;5008025;28;20055;-64
2022/02/03 15:42:59;;;;;;;23.25;16.95;;;;;;;5.68;100.00;100378.78;5014377;28;20047;-64
2022/02/03 15:45:26;;;;;;;22.75;14.73;;;;;;;5.32;100.00;100333.44;5034798;28;20113;-65
2022/02/03 15:47:59;;;;;;;24.85;13.40;;;;;;;5.69;100.00;100390.53;5011360;28;20136;-65
2022/02/03 16:19:06;;;;;;;60.30;39.47;;;;;;;4.49;100.00;100366.97;5030398;28;20064;-64
2022/02/03 16:21:41;;;;;;;43.22;30.33;;;;;;;4.66;100.00;100395.53;5012733;28;20523;-65
2022/02/03 16:51:45;;;;;;;42.47;27.40;;;;;;;4.12;100.00;100449.00;5030268;28;20084;-63
2022/02/03 16:54:14;;;;;;;43.95;30.25;;;;;;;3.70;100.00;100405.16;5030138;28;20029;-65
2022/02/03 16:56:40;;;;;;;129.30;69.20;;;;;;;4.25;100.00;100480.09;5030527;28;20041;-64
2022/02/03 16:59:06;;;;;;;115.82;67.07;;;;;;;4.05;100.00;100464.91;5030031;28;20025;-64
2022/02/03 17:01:31;;;;;;;55.08;34.25;;;;;;;5.59;100.00;100464.50;5029354;28;20051;-67
2022/02/03 17:03:57;;;;;;;72.50;49.03;;;;;;;4.26;100.00;100469.19;5031467;28;20045;-67
2022/02/03 17:06:22;;;;;;;68.30;45.92;;;;;;;3.68;100.00;100422.75;5046758;28;20025;-67
2022/02/03 17:08:48;;;;;;;62.83;44.92;;;;;;;3.66;100.00;100428.59;5048527;28;20036;-67
2022/02/03 17:11:13;;;;;;;84.72;60.30;;;;;;;3.99;100.00;100479.94;5052219;28;20029;-66
2022/02/03 17:13:39;;;;;;;88.90;58.90;;;;;;;3.53;100.00;100428.50;5052471;28;20039;-67
2022/02/03 17:16:05;;;;;;;113.30;76.25;;;;;;;3.48;100.00;100492.97;5052048;28;20036;-66
2022/02/03 17:18:31;;;;;;;123.72;81.38;;;;;;;3.39;100.00;100412.47;5051797;28;20059;-66
2022/02/03 17:20:57;;;;;;;110.05;72.30;;;;;;;2.65;100.00;100363.28;5052518;28;20056;-67
2022/02/03 17:23:24;;;;;;;90.45;61.13;;;;;;;3.47;100.00;100487.91;5053082;28;20068;-67
2022/02/03 17:28:31;;;;;;;53.08;35.45;;;;;;;3.26;100.00;100493.59;5052911;28;20044;-65
2022/02/03 17:31:07;;;;;;;49.03;35.42;;;;;;;3.18;100.00;100444.97;5053163;28;20070;-65
2022/02/03 18:08:50;;;;;;;48.72;35.20;;;;;;;2.15;100.00;100483.06;5015159;28;20538;-66
2022/02/03 18:11:30;;;;;;;49.40;34.17;;;;;;;2.21;100.00;100482.31;5053031;28;20116;-66
2022/02/03 18:30:51;;;;;;;32.03;22.30;;;;;;;3.00;100.00;100429.72;5052819;28;20040;-64
2022/02/03 18:36:11;;;;;;;29.60;20.92;;;;;;;3.81;100.00;100509.13;5052603;28;20036;-65
2022/02/03 18:48:33;;;;;;;31.05;22.75;;;;;;;3.92;100.00;100530.19;5052283;28;20040;-64
2022/02/03 18:52:46;;;;;;;45.17;30.17;;;;;;;3.70;100.00;100538.38;5052213;28;20033;-65
2022/02/03 19:20:54;;;;;;;16.88;11.70;;;;;;;4.53;100.00;100544.84;5051967;28;20495;-64
2022/02/03 20:02:06;;;;;;;17.70;10.98;;;;;;;3.82;100.00;100506.66;5047089;28;20118;-67
2022/02/03 20:07:20;;;;;;;17.27;10.23;;;;;;;4.24;100.00;100564.78;5047363;28;20098;-67
2022/02/03 20:10:10;;;;;;;13.80;9.07;;;;;;;4.24;100.00;100584.06;5047601;28;20037;-66
2022/02/03 20:12:36;;;;;;;20.48;10.80;;;;;;;4.24;100.00;100576.53;5047489;28;20067;-67
2022/02/03 20:15:02;;;;;;;30.45;14.35;;;;;;;4.29;100.00;100583.31;5046840;28;20041;-69
2022/02/03 20:17:28;;;;;;;21.85;10.93;;;;;;;4.25;100.00;100578.22;5029633;28;20040;-69
2022/02/03 20:19:54;;;;;;;14.80;8.52;;;;;;;3.96;100.00;100531.91;5029699;28;20066;-64
2022/02/03 20:22:21;;;;;;;19.95;10.75;;;;;;;4.31;100.00;100583.31;5047122;28;20041;-64
2022/02/03 20:24:47;;;;;;;22.25;11.20;;;;;;;3.96;100.00;100530.19;5030994;28;20026;-64
2022/02/03 20:27:15;;;;;;;19.25;10.95;;;;;;;4.23;100.00;100577.38;5027047;28;20066;-66
2022/02/03 20:29:40;;;;;;;17.45;9.32;;;;;;;4.27;100.00;100577.41;5009418;28;20662;-65
2022/02/03 20:32:06;;;;;;;23.08;11.73;;;;;;;4.27;100.00;100596.69;5026949;28;20055;-65
2022/02/03 20:34:32;;;;;;;22.63;11.30;;;;;;;4.24;100.00;100597.50;5026990;28;20037;-66
2022/02/03 20:36:57;;;;;;;21.10;11.48;;;;;;;3.92;100.00;100548.63;5027077;28;20030;-65
2022/02/03 20:39:23;;;;;;;22.73;11.90;;;;;;;3.68;100.00;100499.81;5026495;28;20436;-65
2022/02/03 20:41:48;;;;;;;30.85;14.13;;;;;;;3.85;100.00;100567.00;5026997;28;20128;-65
2022/02/03 20:44:14;;;;;;;30.35;13.20;;;;;;;3.93;100.00;100555.34;5026905;28;20109;-65
2022/02/03 20:46:39;;;;;;;27.30;13.15;;;;;;;3.81;100.00;100544.34;5009187;28;20476;-65
2022/02/03 20:49:05;;;;;;;17.23;10.45;;;;;;;3.72;100.00;100537.56;5031581;28;20056;-65
2022/02/03 20:51:31;;;;;;;21.75;10.68;;;;;;;3.76;100.00;100549.34;5026081;28;20029;-66
2022/02/03 20:53:56;;;;;;;34.75;15.57;;;;;;;4.09;100.00;100619.19;5008919;28;20036;-66
2022/02/03 20:56:22;;;;;;;48.28;18.58;;;;;;;4.20;100.00;100625.13;5026816;28;20427;-65
2022/02/03 20:58:49;;;;;;;24.02;12.77;;;;;;;4.11;100.00;100617.53;5046449;28;20067;-65
2022/02/03 21:01:20;;;;;;;31.67;16.52;;;;;;;3.88;100.00;100607.25;5046428;28;20029;-66
2022/02/03 21:03:48;;;;;;;19.73;11.77;;;;;;;3.50;100.00;100534.03;5046290;28;20111;-66
2022/02/03 21:06:15;;;;;;;25.73;14.88;;;;;;;3.45;100.00;100527.25;5041225;28;20089;-64
2022/02/03 21:08:45;;;;;;;24.17;14.68;;;;;;;3.94;100.00;100607.31;5025566;28;20032;-65
2022/02/03 21:11:11;;;;;;;26.08;15.45;;;;;;;3.96;100.00;100612.38;5029068;28;20056;-64
2022/02/03 21:13:36;;;;;;;28.35;16.40;;;;;;;3.61;100.00;100541.66;5049859;28;20484;-64
2022/02/03 21:16:05;;;;;;;21.52;12.77;;;;;;;3.96;100.00;100614.91;5050076;28;20056;-64
2022/02/03 21:18:35;;;;;;;17.10;10.45;;;;;;;3.97;100.00;100602.31;5050326;28;20731;-64
2022/02/03 21:21:00;;;;;;;11.43;8.63;;;;;;;3.97;100.00;100601.47;5032105;28;20029;-64
2022/02/03 21:23:26;;;;;;;13.45;9.18;;;;;;;3.41;100.00;100521.38;5031925;28;20414;-64
2022/02/03 21:25:54;;;;;;;16.38;10.18;;;;;;;3.66;100.00;100551.75;5049986;28;20033;-64
2022/02/03 21:28:27;;;;;;;14.32;8.35;;;;;;;3.71;100.00;100576.09;5032164;28;20456;-64
2022/02/03 21:30:53;;;;;;;12.55;8.45;;;;;;;3.45;100.00;100544.84;5050092;28;20464;-64
2022/02/03 21:33:32;;;;;;;12.68;8.35;;;;;;;3.53;100.00;100552.50;5021644;28;20132;-64
2022/02/03 21:36:07;;;;;;;28.00;13.48;;;;;;;3.71;100.00;100583.63;5011966;28;20095;-64
2022/02/03 21:38:34;;;;;;;21.48;12.00;;;;;;;3.64;100.00;100586.09;5017629;28;20464;-64
2022/02/03 21:41:01;;;;;;;14.27;9.02;;;;;;;3.81;100.00;100604.69;5049430;28;20044;-64
2022/02/03 21:43:26;;;;;;;25.63;13.43;;;;;;;3.35;100.00;100538.03;5050044;28;20036;-64
2022/02/03 21:45:52;;;;;;;20.55;12.20;;;;;;;3.83;100.00;100623.97;5030801;28;20391;-63
2022/02/03 21:48:17;;;;;;;22.45;12.52;;;;;;;4.09;100.00;100619.19;5030637;28;20028;-64
2022/02/03 21:50:43;;;;;;;12.85;8.15;;;;;;;3.59;100.00;100532.41;5049649;28;20025;-63
2022/02/03 21:53:22;;;;;;;24.38;12.98;;;;;;;4.04;100.00;100620.84;5031793;28;20654;-64
2022/02/03 21:55:51;;;;;;;27.00;13.30;;;;;;;3.89;100.00;100620.69;5032625;28;20036;-64
2022/02/03 21:58:17;;;;;;;33.00;16.20;;;;;;;3.46;100.00;100552.44;5035332;28;20127;-64
2022/02/03 22:00:43;;;;;;;29.77;15.32;;;;;;;3.94;100.00;100614.03;5052887;28;20052;-64
2022/02/03 22:03:09;;;;;;;24.33;12.32;;;;;;;3.99;100.00;100623.28;5053020;28;20049;-64
2022/02/03 22:05:36;;;;;;;27.92;15.10;;;;;;;3.74;100.00;100618.88;5053014;28;20063;-64
2022/02/03 22:08:03;;;;;;;23.55;13.05;;;;;;;4.02;100.00;100632.56;5034624;28;20495;-64
2022/02/03 22:10:28;;;;;;;16.08;10.80;;;;;;;3.77;100.00;100631.47;5035222;28;20541;-65
2022/02/03 22:12:54;;;;;;;14.82;10.52;;;;;;;3.52;100.00;100581.78;5053155;28;20029;-64
2022/02/03 22:15:20;;;;;;;12.13;7.85;;;;;;;3.85;100.00;100629.88;5035037;28;20032;-64
2022/02/03 22:17:47;;;;;;;10.60;7.25;;;;;;;3.73;100.00;100597.06;5035110;28;20021;-64
2022/02/03 22:20:34;;;;;;;11.13;7.35;;;;;;;3.94;100.00;100656.78;5053171;28;20179;-64
2022/02/03 22:39:14;;;;;;;18.77;12.65;;;;;;;3.43;100.00;100642.84;5032255;28;20187;-65
2022/02/03 22:49:41;;;;;;;10.45;7.68;;;;;;;3.46;100.00;100612.72;5001566;28;20076;-64